createdAt,value
2023-10-22T00:00:55.381Z,374.90
2023-10-22T00:03:44.971Z,339.90
2023-10-22T00:06:13.401Z,368.80
2023-10-22T00:08:41.528Z,291.80
2023-10-22T00:11:09.597Z,399.50
2023-10-22T00:13:37.757Z,420.90
2023-10-22T00:16:05.792Z,309.90
2023-10-22T00:18:33.903Z,207.10
2023-10-22T00:21:02.194Z,388.10
2023-10-22T00:23:30.293Z,66.80
2023-10-22T00:25:58.345Z,174.00
2023-10-22T00:28:26.416Z,220.50
2023-10-22T00:30:54.448Z,166.00
2023-10-22T00:33:22.711Z,238.00
2023-10-22T00:36:00.293Z,244.20
2023-10-22T00:38:28.840Z,220.80
2023-10-22T00:40:57.094Z,134.80
2023-10-22T00:43:25.243Z,110.40
2023-10-22T00:45:54.519Z,226.10
2023-10-22T00:48:23.298Z,273.30
2023-10-22T00:50:51.895Z,220.30
2023-10-22T00:53:21.223Z,267.90
2023-10-22T00:55:50.688Z,345.20
2023-10-22T00:58:21.737Z,210.80
2023-10-22T01:00:50.196Z,257.30
2023-10-22T01:03:20.589Z,187.50
2023-10-22T01:05:49.419Z,157.10
2023-10-22T01:08:17.724Z,137.50
2023-10-22T01:10:45.797Z,198.50
2023-10-22T01:13:15.666Z,139.30
2023-10-22T01:15:44.073Z,178.30
2023-10-22T01:18:12.279Z,133.00
2023-10-22T01:20:43.067Z,119.60
2023-10-22T01:23:11.035Z,106.20
2023-10-22T01:25:39.084Z,134.50
2023-10-22T01:28:07.468Z,146.90
2023-10-22T01:30:37.871Z,129.70
2023-10-22T01:33:08.532Z,121.50
2023-10-22T01:35:36.797Z,93.60
2023-10-22T01:38:05.322Z,111.50
2023-10-22T01:40:33.567Z,91.10
2023-10-22T01:43:01.652Z,66.80
2023-10-22T01:45:29.756Z,161.40
2023-10-22T01:47:57.990Z,85.40
2023-10-22T01:50:26.202Z,106.40
2023-10-22T01:52:54.944Z,165.60
2023-10-22T01:55:22.956Z,166.30
2023-10-22T01:57:51.117Z,109.90
2023-10-22T02:00:19.401Z,260.80
2023-10-22T02:02:47.568Z,151.70
2023-10-22T02:05:15.866Z,181.00
2023-10-22T02:07:43.975Z,168.70
2023-10-22T02:10:12.792Z,121.30
2023-10-22T02:12:41.693Z,113.70
2023-10-22T02:15:10.500Z,171.90
2023-10-22T02:17:40.899Z,171.40
2023-10-22T02:20:13.950Z,158.90
2023-10-22T02:22:42.034Z,155.20
2023-10-22T02:25:10.088Z,101.50
2023-10-22T02:27:38.226Z,178.70
2023-10-22T02:30:08.556Z,227.40
2023-10-22T02:32:36.657Z,211.20
2023-10-22T02:35:05.242Z,124.90
2023-10-22T02:37:33.380Z,133.90
2023-10-22T02:40:01.369Z,148.90
2023-10-22T02:42:29.402Z,162.40
2023-10-22T02:44:57.456Z,174.30
2023-10-22T02:47:25.520Z,183.90
2023-10-22T02:49:55.806Z,136.40
2023-10-22T02:52:23.914Z,117.80
2023-10-22T02:54:51.976Z,126.50
2023-10-22T02:57:20.236Z,103.60
2023-10-22T02:59:49.204Z,71.70
2023-10-22T03:02:18.319Z,47.60
2023-10-22T03:04:46.716Z,87.60
2023-10-22T03:07:14.853Z,134.40
2023-10-22T03:09:42.996Z,90.30
2023-10-22T03:12:13.212Z,141.90
2023-10-22T03:14:43.136Z,164.20
2023-10-22T03:17:11.470Z,143.90
2023-10-22T03:19:41.950Z,130.10
2023-10-22T03:22:16.593Z,150.50
2023-10-22T03:24:44.709Z,161.70
2023-10-22T03:27:12.756Z,229.90
2023-10-22T03:29:40.992Z,185.80
2023-10-22T03:32:10.828Z,102.80
2023-10-22T03:34:39.072Z,201.50
2023-10-22T03:37:11.166Z,58.70
2023-10-22T03:39:39.180Z,190.80
2023-10-22T03:42:07.247Z,60.80
2023-10-22T03:44:35.473Z,179.60
2023-10-22T03:47:04.071Z,179.60
2023-10-22T03:49:32.430Z,154.00
2023-10-22T03:52:00.516Z,40.30
2023-10-22T03:54:28.799Z,72.70
2023-10-22T03:56:57.014Z,60.50
2023-10-22T03:59:25.044Z,65.80
2023-10-22T04:01:53.846Z,39.30
2023-10-22T04:04:21.952Z,39.00
2023-10-22T04:06:49.983Z,52.80
2023-10-22T04:09:18.024Z,67.20
2023-10-22T04:11:46.100Z,42.50
2023-10-22T04:14:14.102Z,73.40
2023-10-22T04:16:42.120Z,46.60
2023-10-22T04:19:10.289Z,40.60
2023-10-22T04:21:38.360Z,46.60
2023-10-22T04:24:07.030Z,48.00
2023-10-22T04:26:35.527Z,42.40
2023-10-22T04:29:03.724Z,37.90
2023-10-22T04:31:32.639Z,40.90
2023-10-22T04:34:00.642Z,46.00
2023-10-22T04:36:28.702Z,47.40
2023-10-22T04:38:56.772Z,47.00
2023-10-22T04:41:26.560Z,56.50
2023-10-22T04:43:54.536Z,40.30
2023-10-22T04:46:22.731Z,39.30
2023-10-22T04:48:50.841Z,38.90
2023-10-22T04:51:19.591Z,47.20
2023-10-22T04:53:47.633Z,46.00
2023-10-22T04:56:15.772Z,37.60
2023-10-22T04:58:43.943Z,55.50
2023-10-22T05:01:12.615Z,45.90
2023-10-22T05:03:40.933Z,61.80
2023-10-22T05:06:11.123Z,47.60
2023-10-22T05:08:40.884Z,51.40
2023-10-22T05:11:16.636Z,48.90
2023-10-22T05:13:45.180Z,58.40
2023-10-22T05:16:14.070Z,44.60
2023-10-22T05:18:42.182Z,53.40
2023-10-22T05:21:10.981Z,42.20
2023-10-22T05:23:39.147Z,51.50
2023-10-22T05:26:10.271Z,47.40
2023-10-22T05:28:39.354Z,48.60
2023-10-22T05:31:19.831Z,36.60
2023-10-22T05:33:48.453Z,63.50
2023-10-22T05:36:22.123Z,119.80
2023-10-22T05:38:51.124Z,195.40
2023-10-22T05:41:27.474Z,66.90
2023-10-22T05:43:57.780Z,41.10
2023-10-22T05:46:35.649Z,44.70
2023-10-22T05:49:05.130Z,46.10
2023-10-22T05:51:36.685Z,50.10
2023-10-22T05:54:05.381Z,49.90
2023-10-22T05:56:34.316Z,59.60
2023-10-22T05:59:06.171Z,60.90
2023-10-22T06:01:34.564Z,48.00
2023-10-22T06:04:02.933Z,54.10
2023-10-22T06:06:31.064Z,69.50
2023-10-22T06:08:59.102Z,89.00
2023-10-22T06:11:27.350Z,58.20
2023-10-22T06:13:56.970Z,54.90
2023-10-22T06:16:25.332Z,39.60
2023-10-22T06:18:53.757Z,35.60
2023-10-22T06:21:22.157Z,34.80
2023-10-22T06:23:51.340Z,47.80
2023-10-22T06:26:19.414Z,40.90
2023-10-22T06:28:49.198Z,37.70
2023-10-22T06:31:17.359Z,37.70
2023-10-22T06:33:45.519Z,39.20
2023-10-22T06:36:19.028Z,43.70
2023-10-22T06:38:50.327Z,72.50
2023-10-22T06:41:21.437Z,61.20
2023-10-22T06:43:50.316Z,65.00
2023-10-22T06:46:19.696Z,41.00
2023-10-22T06:48:48.970Z,36.20
2023-10-22T06:51:18.529Z,41.40
2023-10-22T06:53:48.805Z,36.50
2023-10-22T06:56:17.685Z,36.20
2023-10-22T06:58:47.206Z,36.80
2023-10-22T07:01:16.455Z,41.00
2023-10-22T07:03:46.657Z,59.20
2023-10-22T07:06:16.420Z,40.10
2023-10-22T07:08:46.661Z,34.20
2023-10-22T07:11:15.485Z,46.30
2023-10-22T07:13:43.608Z,38.10
2023-10-22T07:16:11.719Z,28.60
2023-10-22T07:18:40.834Z,28.90
2023-10-22T07:21:09.222Z,28.70
2023-10-22T07:23:37.825Z,28.80
2023-10-22T07:26:05.832Z,30.60
2023-10-22T07:28:33.880Z,28.00
2023-10-22T07:31:01.861Z,27.30
2023-10-22T07:33:30.277Z,23.20
2023-10-22T07:36:01.928Z,27.30
2023-10-22T07:38:34.202Z,28.30
2023-10-22T07:41:02.511Z,27.50
2023-10-22T07:43:30.772Z,29.00
2023-10-22T07:46:01.752Z,28.30
2023-10-22T07:48:30.472Z,23.60
2023-10-22T07:51:14.961Z,27.30
2023-10-22T07:53:44.003Z,25.10
2023-10-22T07:56:13.802Z,26.70
2023-10-22T07:58:41.997Z,25.30
2023-10-22T08:01:10.085Z,27.20
2023-10-22T08:03:38.499Z,27.00
2023-10-22T08:06:07.161Z,26.90
2023-10-22T08:08:35.820Z,24.40
2023-10-22T08:11:07.030Z,25.60
2023-10-22T08:13:35.229Z,25.80
2023-10-22T08:16:04.790Z,27.70
2023-10-22T08:18:33.197Z,22.60
2023-10-22T08:21:05.388Z,24.90
2023-10-22T08:23:34.050Z,25.00
2023-10-22T08:26:01.972Z,27.20
2023-10-22T08:28:30.180Z,24.10
2023-10-22T08:31:00.879Z,22.10
2023-10-22T08:33:30.100Z,24.90
2023-10-22T08:36:05.408Z,23.90
2023-10-22T08:38:33.528Z,25.00
2023-10-22T08:41:07.646Z,20.70
2023-10-22T08:43:40.351Z,23.10
2023-10-22T08:46:08.552Z,25.00
2023-10-22T08:48:38.647Z,21.80
2023-10-22T08:51:08.505Z,22.00
2023-10-22T08:53:36.582Z,23.10
2023-10-22T08:56:05.388Z,25.20
2023-10-22T08:58:33.454Z,24.60
2023-10-22T09:01:01.767Z,25.00
2023-10-22T09:03:33.063Z,31.30
2023-10-22T09:06:02.554Z,22.50
2023-10-22T09:08:47.425Z,23.60
2023-10-22T09:11:17.752Z,26.40
2023-10-22T09:13:46.453Z,28.90
2023-10-22T09:16:30.188Z,24.40
2023-10-22T09:18:59.429Z,30.70
2023-10-22T09:21:45.572Z,27.60
2023-10-22T09:24:14.098Z,25.30
2023-10-22T09:26:50.981Z,24.20
2023-10-22T09:29:19.580Z,26.70
2023-10-22T09:31:54.982Z,21.60
2023-10-22T09:34:27.420Z,24.20
2023-10-22T09:36:57.740Z,25.10
2023-10-22T09:39:40.227Z,25.40
2023-10-22T09:42:16.862Z,25.10
2023-10-22T09:44:47.672Z,29.30
2023-10-22T09:47:23.961Z,28.80
2023-10-22T09:49:57.034Z,29.50
2023-10-22T09:52:26.165Z,29.10
2023-10-22T09:54:55.888Z,30.20
2023-10-22T09:57:30.761Z,25.70
2023-10-22T10:00:03.367Z,28.40
2023-10-22T10:02:35.168Z,27.40
2023-10-22T10:05:09.642Z,27.60
2023-10-22T10:07:40.532Z,23.90
2023-10-22T10:10:11.032Z,29.00
2023-10-22T10:12:43.691Z,28.90
2023-10-22T10:15:32.271Z,26.90
2023-10-22T10:18:04.250Z,29.30
2023-10-22T10:20:32.908Z,25.60
2023-10-22T10:23:09.746Z,30.60
2023-10-22T10:25:41.057Z,28.90
2023-10-22T10:28:11.177Z,29.20
2023-10-22T10:30:39.593Z,27.00
2023-10-22T10:35:45.611Z,29.80
2023-10-22T10:38:17.141Z,28.70
2023-10-22T10:40:52.466Z,27.70
2023-10-22T10:43:22.202Z,29.40
2023-10-22T10:46:26.033Z,32.20
2023-10-22T10:48:54.413Z,29.80
2023-10-22T10:51:25.845Z,31.30
2023-10-22T10:54:09.644Z,31.50
2023-10-22T10:56:57.008Z,32.40
2023-10-22T10:59:32.431Z,33.50
2023-10-22T11:02:05.804Z,27.70
2023-10-22T11:04:36.639Z,33.60
2023-10-22T11:07:18.715Z,33.80
2023-10-22T11:09:51.229Z,32.80
2023-10-22T11:12:22.225Z,29.60
2023-10-22T11:14:58.710Z,32.40
2023-10-22T11:17:28.490Z,30.10
2023-10-22T11:19:58.068Z,29.80
2023-10-22T11:22:26.451Z,25.30
2023-10-22T11:24:57.203Z,28.80
2023-10-22T11:27:25.903Z,31.00
2023-10-22T11:29:54.204Z,28.50
2023-10-22T11:32:23.225Z,26.20
2023-10-22T11:34:52.444Z,25.00
2023-10-22T11:37:21.131Z,26.80
2023-10-22T11:39:49.323Z,22.60
2023-10-22T11:42:17.499Z,26.70
2023-10-22T11:44:47.187Z,26.30
2023-10-22T11:47:34.862Z,20.60
2023-10-22T11:50:04.340Z,22.50
2023-10-22T11:52:35.792Z,25.70
2023-10-22T11:55:12.764Z,23.90
2023-10-22T11:57:47.898Z,22.20
2023-10-22T12:00:16.507Z,23.20
2023-10-22T12:02:44.579Z,24.20
2023-10-22T12:05:14.064Z,16.60
2023-10-22T12:07:42.093Z,21.30
2023-10-22T12:10:11.694Z,21.00
2023-10-22T12:12:39.890Z,21.90
2023-10-22T12:15:09.361Z,20.40
2023-10-22T12:17:37.624Z,21.20
2023-10-22T12:20:06.545Z,19.70
2023-10-22T12:22:34.708Z,20.10
2023-10-22T12:25:05.397Z,19.30
2023-10-22T12:27:34.266Z,19.80
2023-10-22T12:30:04.078Z,16.60
2023-10-22T12:32:32.366Z,22.70
2023-10-22T12:35:01.302Z,25.80
2023-10-22T12:37:29.397Z,20.30
2023-10-22T12:39:57.442Z,23.70
2023-10-22T12:42:25.459Z,19.50
2023-10-22T12:44:53.652Z,23.30
2023-10-22T12:47:21.950Z,20.10
2023-10-22T12:49:50.493Z,21.90
2023-10-22T12:52:19.004Z,20.20
2023-10-22T12:54:47.313Z,20.30
2023-10-22T12:57:15.673Z,37.20
2023-10-22T12:59:43.848Z,20.90
2023-10-22T13:02:12.155Z,20.30
2023-10-22T13:04:42.519Z,42.20
2023-10-22T13:07:11.884Z,22.30
2023-10-22T13:09:40.029Z,17.30
2023-10-22T13:12:08.277Z,17.90
2023-10-22T13:14:36.616Z,14.50
2023-10-22T13:17:05.069Z,20.90
2023-10-22T13:19:33.089Z,25.10
2023-10-22T13:22:01.156Z,17.50
2023-10-22T13:24:30.032Z,15.90
2023-10-22T13:26:58.807Z,13.20
2023-10-22T13:29:27.163Z,13.60
2023-10-22T13:31:55.717Z,13.90
2023-10-22T13:34:23.776Z,15.40
2023-10-22T13:36:52.347Z,16.90
2023-10-22T13:39:21.257Z,17.20
2023-10-22T13:41:49.435Z,16.60
2023-10-22T13:44:17.414Z,15.90
2023-10-22T13:46:45.909Z,38.70
2023-10-22T13:49:14.052Z,39.80
2023-10-22T13:51:42.222Z,21.20
2023-10-22T13:54:10.370Z,16.00
2023-10-22T13:56:38.575Z,14.70
2023-10-22T13:59:10.161Z,15.00
2023-10-22T14:01:38.401Z,14.40
2023-10-22T14:04:06.874Z,18.10
2023-10-22T14:06:35.134Z,17.80
2023-10-22T14:09:03.267Z,16.70
2023-10-22T14:11:31.435Z,16.50
2023-10-22T14:14:00.028Z,18.00
2023-10-22T14:16:28.029Z,15.80
2023-10-22T14:18:56.116Z,17.00
2023-10-22T14:21:24.646Z,21.50
2023-10-22T14:23:52.879Z,19.10
2023-10-22T14:26:20.893Z,19.00
2023-10-22T14:28:48.903Z,24.30
2023-10-22T14:31:16.915Z,27.60
2023-10-22T14:33:45.018Z,25.90
2023-10-22T14:36:16.351Z,20.30
2023-10-22T14:38:44.605Z,24.80
2023-10-22T14:41:12.825Z,20.80
2023-10-22T14:43:40.860Z,25.60
2023-10-22T14:46:10.872Z,24.70
2023-10-22T14:48:39.226Z,19.20
2023-10-22T14:51:07.324Z,21.20
2023-10-22T14:53:35.438Z,17.40
2023-10-22T14:56:05.478Z,21.70
2023-10-22T14:58:33.527Z,23.10
2023-10-22T15:01:10.251Z,20.40
2023-10-22T15:03:38.688Z,21.50
2023-10-22T15:06:07.323Z,21.30
2023-10-22T15:08:35.361Z,19.00
2023-10-22T15:11:09.821Z,22.00
2023-10-22T15:13:38.100Z,21.10
2023-10-22T15:16:11.734Z,19.50
2023-10-22T15:18:40.290Z,22.00
2023-10-22T15:21:11.694Z,21.40
2023-10-22T15:23:39.751Z,18.90
2023-10-22T15:26:07.891Z,20.70
2023-10-22T15:28:36.112Z,20.80
2023-10-22T15:31:04.338Z,19.20
2023-10-22T15:33:32.603Z,22.50
2023-10-22T15:36:00.968Z,25.10
2023-10-22T15:38:29.533Z,22.50
2023-10-22T15:41:01.691Z,25.50
2023-10-22T15:43:29.764Z,20.80
2023-10-22T15:45:58.269Z,22.00
2023-10-22T15:48:33.241Z,21.80
2023-10-22T15:51:02.944Z,23.90
2023-10-22T15:53:30.920Z,25.50
2023-10-22T15:56:06.547Z,25.90
2023-10-22T15:58:34.785Z,24.50
2023-10-22T16:01:03.138Z,24.60
2023-10-22T16:03:31.381Z,23.50
2023-10-22T16:06:01.483Z,27.80
2023-10-22T16:08:29.764Z,25.50
2023-10-22T16:10:57.821Z,25.00
2023-10-22T16:13:25.876Z,25.20
2023-10-22T16:15:54.096Z,26.00
2023-10-22T16:18:23.916Z,31.50
2023-10-22T16:20:53.238Z,27.00
2023-10-22T16:23:21.515Z,27.60
2023-10-22T16:25:50.076Z,30.40
2023-10-22T16:28:18.299Z,30.80
2023-10-22T16:30:53.201Z,32.20
2023-10-22T16:33:21.756Z,28.30
2023-10-22T16:35:50.054Z,31.70
2023-10-22T16:38:18.067Z,27.00
2023-10-22T16:40:46.336Z,25.30
2023-10-22T16:43:14.397Z,23.40
2023-10-22T16:45:47.176Z,25.60
2023-10-22T16:48:15.816Z,17.90
2023-10-22T16:50:45.695Z,16.30
2023-10-22T16:53:13.844Z,18.60
2023-10-22T16:55:41.880Z,16.10
2023-10-22T16:58:10.030Z,16.60
2023-10-22T17:00:38.343Z,14.60
2023-10-22T17:03:06.629Z,14.40
2023-10-22T17:05:35.043Z,17.10
2023-10-22T17:08:03.304Z,19.50
2023-10-22T17:10:31.268Z,17.30
2023-10-22T17:13:00.863Z,14.20
2023-10-22T17:15:32.045Z,19.00
2023-10-22T17:18:00.167Z,18.00
2023-10-22T17:20:28.481Z,15.40
2023-10-22T17:22:56.859Z,16.30
2023-10-22T17:25:25.422Z,17.40
2023-10-22T17:27:53.390Z,18.10
2023-10-22T17:30:21.436Z,21.80
2023-10-22T17:32:49.692Z,34.50
2023-10-22T17:35:17.884Z,21.10
2023-10-22T17:37:46.284Z,16.30
2023-10-22T17:40:14.546Z,17.10
2023-10-22T17:42:42.683Z,12.80
2023-10-22T17:45:43.053Z,14.50
2023-10-22T17:48:11.852Z,14.70
2023-10-22T17:50:40.144Z,16.10
2023-10-22T17:53:25.972Z,16.20
2023-10-22T17:56:09.973Z,17.10
2023-10-22T17:58:39.651Z,13.80
2023-10-22T18:01:07.881Z,11.10
2023-10-22T18:03:38.655Z,10.40
2023-10-22T18:06:08.074Z,14.40
2023-10-22T18:08:36.848Z,14.00
2023-10-22T18:11:06.617Z,11.90
2023-10-22T18:13:35.445Z,11.50
2023-10-22T18:16:03.634Z,11.60
2023-10-22T18:18:31.912Z,12.90
2023-10-22T18:21:05.011Z,10.90
2023-10-22T18:23:33.940Z,9.60
2023-10-22T18:26:04.647Z,8.00
2023-10-22T18:28:33.382Z,10.20
2023-10-22T18:31:06.369Z,12.00
2023-10-22T18:33:35.142Z,11.90
2023-10-22T18:36:04.548Z,10.90
2023-10-22T18:38:32.916Z,13.80
2023-10-22T18:41:12.097Z,12.50
2023-10-22T18:43:48.885Z,10.00
2023-10-22T18:46:20.211Z,11.80
2023-10-22T18:48:54.230Z,9.60
2023-10-22T18:51:22.631Z,10.80
2023-10-22T18:53:51.165Z,9.30
2023-10-22T18:56:19.607Z,10.80
2023-10-22T18:58:49.593Z,11.20
2023-10-22T19:01:28.947Z,9.40
2023-10-22T19:04:00.262Z,10.00
2023-10-22T19:06:32.859Z,12.40
2023-10-22T19:09:05.550Z,11.20
2023-10-22T19:11:33.994Z,12.40
2023-10-22T19:14:02.118Z,13.00
2023-10-22T19:16:32.444Z,12.50
2023-10-22T19:19:01.127Z,11.50
2023-10-22T19:21:29.257Z,14.20
2023-10-22T19:23:57.275Z,13.20
2023-10-22T19:26:27.413Z,17.10
2023-10-22T19:28:56.047Z,17.20
2023-10-22T19:31:24.179Z,16.30
2023-10-22T19:33:52.424Z,15.90
2023-10-22T19:36:21.431Z,15.60
2023-10-22T19:38:49.593Z,14.50
2023-10-22T19:41:21.991Z,17.80
2023-10-22T19:43:52.474Z,13.80
2023-10-22T19:46:20.673Z,13.20
2023-10-22T19:48:48.797Z,15.00
2023-10-22T19:51:17.016Z,16.70
2023-10-22T19:53:45.259Z,14.30
2023-10-22T19:56:18.808Z,15.90
2023-10-22T19:58:46.947Z,15.90
2023-10-22T20:01:26.689Z,15.10
2023-10-22T20:03:55.409Z,15.00
2023-10-22T20:06:24.965Z,16.50
2023-10-22T20:08:54.284Z,16.60
2023-10-22T20:11:24.104Z,15.80
2023-10-22T20:13:52.581Z,18.70
2023-10-22T20:16:25.003Z,22.10
2023-10-22T20:18:53.554Z,54.10
2023-10-22T20:21:23.094Z,248.20
2023-10-22T20:23:52.600Z,284.90
2023-10-22T20:26:22.340Z,94.10
2023-10-22T20:28:51.234Z,39.30
2023-10-22T20:31:19.467Z,40.60
2023-10-22T20:33:49.492Z,38.30
2023-10-22T20:36:18.576Z,37.30
2023-10-22T20:38:47.483Z,36.10
2023-10-22T20:41:16.025Z,36.50
2023-10-22T20:43:44.383Z,37.70
2023-10-22T20:46:12.677Z,61.40
2023-10-22T20:48:41.019Z,57.70
2023-10-22T20:51:13.922Z,42.30
2023-10-22T20:53:45.904Z,40.80
2023-10-22T20:56:15.248Z,42.60
2023-10-22T20:58:44.116Z,37.20
2023-10-22T21:01:22.450Z,64.60
2023-10-22T21:03:54.119Z,64.10
2023-10-22T21:06:22.502Z,63.90
2023-10-22T21:08:51.074Z,51.60
2023-10-22T21:11:19.200Z,47.90
2023-10-22T21:13:47.779Z,38.40
2023-10-22T21:16:16.434Z,39.80
2023-10-22T21:18:44.952Z,39.20
2023-10-22T21:21:13.142Z,35.00
2023-10-22T21:23:41.554Z,34.60
2023-10-22T21:26:09.577Z,34.60
2023-10-22T21:28:38.094Z,33.30
2023-10-22T21:31:07.590Z,32.50
2023-10-22T21:33:36.399Z,27.50
2023-10-22T21:36:08.354Z,27.90
2023-10-22T21:38:36.513Z,29.60
2023-10-22T21:41:04.984Z,28.00
2023-10-22T21:43:32.951Z,26.40
2023-10-22T21:46:11.437Z,21.50
2023-10-22T21:48:40.716Z,33.60
2023-10-22T21:51:09.094Z,30.70
2023-10-22T21:53:37.467Z,24.10
2023-10-22T21:56:06.168Z,31.50
2023-10-22T21:58:34.486Z,32.80
2023-10-22T22:01:04.163Z,30.60
2023-10-22T22:03:33.094Z,28.90
2023-10-22T22:06:01.734Z,32.00
2023-10-22T22:08:29.839Z,34.40
2023-10-22T22:10:57.875Z,32.40
2023-10-22T22:13:25.862Z,32.90
2023-10-22T22:15:53.991Z,36.90
2023-10-22T22:18:22.174Z,39.90
2023-10-22T22:20:50.306Z,35.80
2023-10-22T22:23:19.268Z,41.40
2023-10-22T22:25:47.547Z,39.60
2023-10-22T22:28:15.626Z,43.40
2023-10-22T22:30:43.702Z,42.50
2023-10-22T22:33:12.075Z,39.90
2023-10-22T22:35:40.504Z,42.80
2023-10-22T22:38:09.317Z,39.90
2023-10-22T22:40:37.358Z,38.90
2023-10-22T22:43:05.593Z,41.30
2023-10-22T22:45:33.834Z,41.80
2023-10-22T22:48:02.026Z,42.30
2023-10-22T22:50:30.381Z,46.90
2023-10-22T22:52:58.722Z,52.20
2023-10-22T22:55:27.775Z,53.20
2023-10-22T22:57:55.746Z,51.00
2023-10-22T23:00:23.759Z,42.50
2023-10-22T23:02:51.769Z,50.80
2023-10-22T23:05:20.104Z,52.70
2023-10-22T23:07:48.217Z,45.10
2023-10-22T23:10:16.273Z,50.40
2023-10-22T23:12:44.622Z,56.60
2023-10-22T23:15:12.768Z,56.80
2023-10-22T23:17:40.801Z,59.30
2023-10-22T23:20:10.090Z,50.90
2023-10-22T23:22:38.285Z,53.70
2023-10-22T23:25:07.080Z,59.00
2023-10-22T23:27:35.086Z,62.30
2023-10-22T23:30:03.260Z,63.60
2023-10-22T23:32:31.361Z,45.20
2023-10-22T23:34:59.366Z,66.90
2023-10-22T23:37:27.379Z,65.40
2023-10-22T23:39:55.416Z,63.60
2023-10-22T23:42:23.367Z,73.70
2023-10-22T23:44:51.458Z,69.90
2023-10-22T23:47:19.498Z,74.50
2023-10-22T23:49:47.506Z,80.30
2023-10-22T23:52:15.444Z,80.30
2023-10-22T23:54:43.473Z,61.80
2023-10-22T23:57:11.593Z,62.50
2023-10-22T23:59:39.589Z,74.80
